Fort Shafter, Hawaii
Current Conditions -  °F | °C
As of 4:53 PM on Saturday 25 Oct 2014 (Local Time) from PHNL Reporting Station
Scattered Clouds Scattered Clouds  
Wind Chill: 84°   Ceiling: Unl
Heat Index: 88°   Visibility: 10mi
Dew Point: 69°   Wind: 16mph
Humidity: 61%   Direction: 50°NE
Pressure: 29.96"   Gusts: NA
Location:  21.35°N, 157.87°W
Report Text: PHNL 260253Z 05014KT 10SM FEW027 SCT040 SCT060 29/21 A2996 RMK AO2 SLP145 T02890206 53001
Loading
Personal Weather Stations






























Interactive Weather Map
Tropical Storm Tracking
New forecast layout! Learn more

10-Day Weather Forecast

Advertisements
Track Severe Weather on mobile